createdAt,value
2018-04-18T00:01:57.690Z,15.37
2018-04-18T00:04:24.421Z,15.43
2018-04-18T00:06:51.278Z,15.48
2018-04-18T00:09:17.989Z,15.40
2018-04-18T00:11:44.695Z,15.56
2018-04-18T00:14:11.478Z,15.74
2018-04-18T00:16:38.358Z,15.90
2018-04-18T00:19:05.083Z,15.77
2018-04-18T00:21:31.818Z,15.61
2018-04-18T00:23:58.548Z,15.58
2018-04-18T00:26:25.316Z,15.68
2018-04-18T00:28:52.083Z,15.64
2018-04-18T00:31:18.823Z,15.53
2018-04-18T00:33:45.536Z,15.40
2018-04-18T00:36:12.275Z,15.47
2018-04-18T00:38:39.057Z,15.53
2018-04-18T00:41:05.804Z,15.74
2018-04-18T00:43:33.356Z,15.75
2018-04-18T00:46:00.856Z,15.64
2018-04-18T00:48:27.831Z,15.74
2018-04-18T00:50:54.624Z,15.72
2018-04-18T00:53:21.391Z,15.69
2018-04-18T00:55:48.194Z,15.65
2018-04-18T00:58:14.944Z,15.56
2018-04-18T01:00:41.701Z,15.65
2018-04-18T01:03:10.648Z,15.59
2018-04-18T01:05:38.445Z,15.65
2018-04-18T01:08:05.469Z,15.71
2018-04-18T01:10:32.521Z,15.79
2018-04-18T01:12:59.569Z,15.87
2018-04-18T01:15:26.606Z,16.01
2018-04-18T01:17:53.636Z,16.07
2018-04-18T01:20:20.648Z,15.87
2018-04-18T01:22:47.681Z,16.12
2018-04-18T01:25:14.739Z,16.03
2018-04-18T01:27:41.798Z,16.03
2018-04-18T01:30:08.826Z,15.95
2018-04-18T01:32:35.855Z,15.91
2018-04-18T01:35:02.931Z,15.80
2018-04-18T01:37:29.938Z,15.78
2018-04-18T01:39:56.938Z,15.66
2018-04-18T01:42:24.070Z,15.44
2018-04-18T01:44:51.196Z,15.33
2018-04-18T01:47:18.232Z,15.36
2018-04-18T01:49:45.301Z,15.34
2018-04-18T01:52:12.399Z,15.22
2018-04-18T01:54:39.426Z,15.24
2018-04-18T01:57:06.506Z,15.21
2018-04-18T01:59:34.364Z,15.15
2018-04-18T02:02:01.416Z,15.00
2018-04-18T02:04:29.247Z,14.97
2018-04-18T02:06:56.286Z,14.89
2018-04-18T02:09:23.341Z,14.80
2018-04-18T02:11:50.341Z,14.70
2018-04-18T02:14:18.068Z,14.64
2018-04-18T02:16:45.048Z,14.48
2018-04-18T02:19:12.747Z,14.44
2018-04-18T02:21:40.588Z,14.29
2018-04-18T02:24:07.658Z,14.28
2018-04-18T02:26:34.721Z,14.20
2018-04-18T02:29:01.901Z,14.24
2018-04-18T02:31:29.010Z,14.19
2018-04-18T02:33:56.093Z,14.37
2018-04-18T02:36:23.233Z,14.33
2018-04-18T02:38:50.359Z,14.40
2018-04-18T02:41:17.475Z,14.23
2018-04-18T02:43:44.538Z,14.13
2018-04-18T02:46:11.787Z,14.09
2018-04-18T02:48:38.858Z,14.22
2018-04-18T02:51:06.027Z,14.69
2018-04-18T02:53:33.069Z,14.80
2018-04-18T02:56:00.142Z,14.82
2018-04-18T02:58:27.929Z,14.79
2018-04-18T03:00:55.704Z,14.84
2018-04-18T03:03:22.825Z,14.76
2018-04-18T03:05:49.874Z,14.55
2018-04-18T03:08:16.906Z,14.29
2018-04-18T03:10:43.976Z,14.24
2018-04-18T03:13:11.759Z,14.24
2018-04-18T03:15:39.552Z,14.23
2018-04-18T03:18:06.684Z,14.19
2018-04-18T03:20:33.819Z,14.20
2018-04-18T03:23:00.819Z,14.16
2018-04-18T03:25:27.853Z,14.08
2018-04-18T03:27:54.894Z,13.94
2018-04-18T03:30:21.938Z,13.80
2018-04-18T03:32:49.052Z,13.72
2018-04-18T03:35:16.845Z,13.58
2018-04-18T03:37:43.883Z,13.56
2018-04-18T03:40:10.943Z,13.52
2018-04-18T03:42:38.004Z,13.85
2018-04-18T03:45:05.063Z,14.04
2018-04-18T03:47:32.250Z,13.93
2018-04-18T03:49:59.251Z,14.07
2018-04-18T03:52:26.272Z,14.08
2018-04-18T03:54:53.306Z,13.93
2018-04-18T03:57:20.399Z,14.05
2018-04-18T03:59:47.529Z,13.97
2018-04-18T04:02:14.586Z,13.98
2018-04-18T04:04:41.844Z,14.23
2018-04-18T04:07:08.891Z,14.60
2018-04-18T04:09:35.939Z,14.82
2018-04-18T04:12:02.992Z,15.04
2018-04-18T04:14:30.037Z,14.93
2018-04-18T04:17:15.096Z,14.43
2018-04-18T04:20:00.132Z,14.02
2018-04-18T04:22:45.164Z,13.53
2018-04-18T04:25:12.131Z,13.18
2018-04-18T04:27:39.896Z,13.01
2018-04-18T04:30:07.629Z,12.98
2018-04-18T04:32:34.601Z,12.88
2018-04-18T04:35:02.386Z,12.87
2018-04-18T04:37:29.517Z,13.41
2018-04-18T04:39:57.369Z,13.86
2018-04-18T04:42:24.410Z,14.18
2018-04-18T04:44:51.472Z,14.34
2018-04-18T04:47:18.515Z,14.52
2018-04-18T04:49:45.575Z,14.72
2018-04-18T04:52:13.405Z,14.17
2018-04-18T04:54:40.427Z,13.79
2018-04-18T04:57:07.564Z,13.54
2018-04-18T04:59:34.642Z,13.30
2018-04-18T05:02:01.652Z,13.14
2018-04-18T05:04:28.689Z,13.16
2018-04-18T05:06:55.826Z,13.22
2018-04-18T05:09:22.925Z,13.07
2018-04-18T05:11:50.645Z,12.79
2018-04-18T05:14:23.345Z,13.37
2018-04-18T05:16:51.873Z,13.44
2018-04-18T05:19:18.983Z,13.86
2018-04-18T05:21:46.032Z,13.75
2018-04-18T05:24:13.179Z,13.17
2018-04-18T05:26:40.223Z,12.77
2018-04-18T05:29:07.317Z,12.50
2018-04-18T05:31:34.370Z,12.35
2018-04-18T05:34:01.403Z,12.56
2018-04-18T05:36:28.495Z,12.45
2018-04-18T05:39:03.054Z,12.89
2018-04-18T05:41:31.170Z,13.81
2018-04-18T05:43:58.196Z,14.22
2018-04-18T05:46:25.233Z,14.13
2018-04-18T05:48:52.286Z,13.63
2018-04-18T05:51:19.348Z,13.60
2018-04-18T05:53:46.383Z,13.34
2018-04-18T05:56:13.428Z,13.44
2018-04-18T05:58:40.576Z,13.39
2018-04-18T06:01:07.639Z,13.39
2018-04-18T06:03:34.668Z,13.57
2018-04-18T06:06:01.685Z,13.63
2018-04-18T06:08:28.778Z,13.72
2018-04-18T06:10:55.818Z,14.05
2018-04-18T06:13:22.898Z,14.35
2018-04-18T06:15:50.731Z,14.86
2018-04-18T06:18:17.758Z,15.03
2018-04-18T06:20:44.839Z,15.55
2018-04-18T06:23:11.876Z,15.86
2018-04-18T06:25:38.963Z,15.97
2018-04-18T06:28:06.766Z,16.27
2018-04-18T06:30:34.562Z,16.84
2018-04-18T06:33:01.611Z,17.29
2018-04-18T06:35:28.615Z,17.91
2018-04-18T06:37:55.653Z,18.32
2018-04-18T06:40:23.363Z,18.47
2018-04-18T06:42:50.368Z,18.40
2018-04-18T06:45:17.350Z,18.50
2018-04-18T06:47:44.392Z,18.63
2018-04-18T06:50:12.221Z,18.87
2018-04-18T06:52:39.260Z,19.21
2018-04-18T06:55:06.988Z,19.69
2018-04-18T06:57:33.960Z,19.94
2018-04-18T07:00:01.959Z,19.98
2018-04-18T07:02:28.986Z,20.04
2018-04-18T07:04:56.712Z,19.87
2018-04-18T07:07:23.753Z,19.86
2018-04-18T07:09:50.871Z,19.93
2018-04-18T07:12:17.854Z,19.62
2018-04-18T07:14:44.826Z,19.54
2018-04-18T07:17:11.831Z,19.45
2018-04-18T07:19:38.909Z,19.24
2018-04-18T07:22:05.896Z,19.41
2018-04-18T07:24:32.887Z,19.81
2018-04-18T07:26:59.979Z,20.26
2018-04-18T07:29:27.087Z,20.46
2018-04-18T07:31:54.129Z,20.35
2018-04-18T07:34:21.180Z,20.19
2018-04-18T07:36:48.197Z,20.04
2018-04-18T07:39:15.182Z,20.04
2018-04-18T07:41:42.211Z,20.11
2018-04-18T07:44:09.194Z,19.95
2018-04-18T07:46:36.175Z,20.12
2018-04-18T07:49:03.219Z,20.22
2018-04-18T07:51:30.220Z,20.26
2018-04-18T07:53:57.190Z,20.14
2018-04-18T07:56:24.920Z,20.02
2018-04-18T07:58:51.897Z,19.83
2018-04-18T08:01:18.894Z,19.80
2018-04-18T08:03:45.900Z,19.76
2018-04-18T08:06:13.696Z,19.90
2018-04-18T08:08:40.692Z,19.91
2018-04-18T08:11:07.664Z,19.89
2018-04-18T08:13:34.654Z,19.80
2018-04-18T08:16:01.642Z,19.83
2018-04-18T08:18:29.349Z,19.91
2018-04-18T08:20:56.311Z,19.95
2018-04-18T08:23:23.376Z,20.07
2018-04-18T08:25:50.440Z,20.14
2018-04-18T08:28:18.269Z,20.13
2018-04-18T08:30:45.315Z,20.13
2018-04-18T08:33:12.395Z,20.14
2018-04-18T08:35:39.449Z,20.27
2018-04-18T08:38:06.499Z,20.53
2018-04-18T08:40:33.539Z,20.97
2018-04-18T08:43:00.684Z,21.17
2018-04-18T08:45:27.747Z,21.18
2018-04-18T08:47:54.787Z,21.06
2018-04-18T08:50:21.867Z,21.15
2018-04-18T08:52:49.758Z,21.27
2018-04-18T08:55:16.831Z,21.22
2018-04-18T08:57:43.911Z,21.30
2018-04-18T09:03:17.983Z,22.45
2018-04-18T09:05:45.195Z,22.63
2018-04-18T09:08:13.003Z,22.78
2018-04-18T09:10:39.993Z,22.54
2018-04-18T09:13:06.976Z,22.47
2018-04-18T09:15:34.728Z,22.38
2018-04-18T09:18:02.503Z,22.30
2018-04-18T09:20:30.228Z,22.49
2018-04-18T09:22:57.295Z,22.67
2018-04-18T09:25:24.319Z,22.86
2018-04-18T09:27:51.355Z,23.14
2018-04-18T09:30:18.365Z,22.92
2018-04-18T09:32:45.430Z,22.75
2018-04-18T09:35:12.429Z,22.62
2018-04-18T09:37:39.538Z,22.44
2018-04-18T09:40:06.577Z,22.42
2018-04-18T09:42:33.565Z,22.38
2018-04-18T09:45:00.545Z,22.26
2018-04-18T09:47:27.530Z,22.32
2018-04-18T09:49:54.546Z,22.44
2018-04-18T09:52:21.526Z,22.34
2018-04-18T09:54:48.543Z,22.34
2018-04-18T09:57:15.563Z,22.17
2018-04-18T09:59:43.396Z,21.99
2018-04-18T10:02:16.393Z,21.91
2018-04-18T10:04:44.186Z,21.66
2018-04-18T10:07:12.926Z,21.72
2018-04-18T10:09:39.943Z,21.94
2018-04-18T10:12:06.916Z,21.99
2018-04-18T10:14:33.941Z,22.19
2018-04-18T10:17:00.913Z,21.96
2018-04-18T10:19:27.916Z,22.03
2018-04-18T10:21:55.633Z,22.13
2018-04-18T10:24:22.628Z,22.03
2018-04-18T10:26:50.333Z,22.12
2018-04-18T10:29:17.653Z,22.02
2018-04-18T10:31:44.703Z,21.89
2018-04-18T10:34:11.817Z,22.19
2018-04-18T10:36:39.722Z,22.46
2018-04-18T10:39:06.912Z,22.58
2018-04-18T10:41:33.965Z,22.69
2018-04-18T10:44:01.098Z,22.94
2018-04-18T10:46:28.230Z,23.35
2018-04-18T10:48:55.311Z,23.70
2018-04-18T10:51:22.425Z,23.16
2018-04-18T10:53:49.515Z,22.92
2018-04-18T10:56:16.573Z,22.41
2018-04-18T10:58:43.636Z,22.60
2018-04-18T11:01:10.734Z,23.05
2018-04-18T11:03:37.907Z,23.46
2018-04-18T11:06:05.079Z,23.49
2018-04-18T11:08:32.938Z,23.45
2018-04-18T11:11:00.769Z,23.33
2018-04-18T11:13:27.851Z,23.57
2018-04-18T11:15:55.671Z,23.49
2018-04-18T11:18:22.731Z,23.45
2018-04-18T11:20:49.743Z,23.82
2018-04-18T11:23:16.805Z,23.49
2018-04-18T11:25:43.878Z,23.43
2018-04-18T11:28:10.895Z,23.93
2018-04-18T11:30:38.829Z,23.90
2018-04-18T11:33:05.834Z,23.25
2018-04-18T11:35:32.893Z,23.09
2018-04-18T11:38:00.001Z,23.26
2018-04-18T11:40:27.762Z,23.48
2018-04-18T11:42:54.788Z,23.35
2018-04-18T11:45:21.886Z,23.40
2018-04-18T11:47:49.003Z,23.25
2018-04-18T11:50:16.009Z,23.34
2018-04-18T11:52:43.067Z,23.23
2018-04-18T11:55:10.864Z,23.44
2018-04-18T11:57:37.937Z,23.55
2018-04-18T12:00:05.738Z,23.34
2018-04-18T12:02:32.735Z,23.28
2018-04-18T12:04:59.771Z,23.16
2018-04-18T12:07:27.613Z,23.54
2018-04-18T12:09:54.664Z,24.32
2018-04-18T12:12:21.745Z,24.17
2018-04-18T12:14:48.804Z,23.87
2018-04-18T12:17:15.804Z,24.07
2018-04-18T12:19:43.581Z,23.68
2018-04-18T12:22:11.384Z,23.51
2018-04-18T12:24:38.471Z,23.52
2018-04-18T12:27:06.283Z,23.38
2018-04-18T12:29:33.333Z,23.37
2018-04-18T12:32:00.355Z,23.68
2018-04-18T12:34:28.143Z,23.82
2018-04-18T12:36:55.154Z,23.89
2018-04-18T12:39:22.973Z,23.80
2018-04-18T12:41:50.019Z,23.94
2018-04-18T12:44:17.049Z,23.86
2018-04-18T12:46:44.161Z,23.99
2018-04-18T12:49:11.201Z,23.60
2018-04-18T12:51:38.232Z,23.52
2018-04-18T12:54:06.005Z,23.59
2018-04-18T12:56:33.077Z,23.69
2018-04-18T12:59:00.109Z,23.81
2018-04-18T13:01:27.154Z,23.65
2018-04-18T13:03:54.131Z,23.76
2018-04-18T13:06:21.169Z,24.14
2018-04-18T13:08:48.194Z,24.05
2018-04-18T13:11:15.242Z,24.23
2018-04-18T13:13:42.295Z,24.36
2018-04-18T13:16:09.345Z,23.87
2018-04-18T13:18:36.528Z,23.78
2018-04-18T13:21:04.292Z,23.96
2018-04-18T13:23:32.055Z,24.12
2018-04-18T13:25:59.087Z,25.05
2018-04-18T13:28:26.094Z,24.65
2018-04-18T13:30:53.146Z,24.19
2018-04-18T13:33:20.159Z,24.24
2018-04-18T13:35:47.153Z,24.02
2018-04-18T13:38:14.254Z,23.63
2018-04-18T13:40:41.241Z,23.14
2018-04-18T13:43:08.276Z,22.44
2018-04-18T13:45:35.404Z,22.33
2018-04-18T13:48:02.414Z,22.41
2018-04-18T13:50:30.183Z,22.27
2018-04-18T13:52:57.278Z,21.70
2018-04-18T13:55:24.290Z,21.67
2018-04-18T13:57:52.035Z,21.92
2018-04-18T14:00:19.003Z,22.14
2018-04-18T14:02:46.735Z,21.99
2018-04-18T14:05:14.519Z,22.00
2018-04-18T14:07:41.541Z,21.98
2018-04-18T14:10:08.565Z,21.88
2018-04-18T14:12:35.571Z,21.94
2018-04-18T14:15:02.649Z,21.72
2018-04-18T14:17:29.681Z,21.77
2018-04-18T14:19:56.680Z,21.77
2018-04-18T14:22:23.688Z,21.70
2018-04-18T14:24:50.692Z,21.96
2018-04-18T14:27:17.711Z,22.03
2018-04-18T14:29:44.698Z,22.19
2018-04-18T14:32:12.425Z,22.47
2018-04-18T14:34:39.430Z,22.58
2018-04-18T14:37:06.483Z,22.77
2018-04-18T14:39:33.551Z,23.14
2018-04-18T14:42:00.568Z,23.40
2018-04-18T14:44:27.583Z,23.12
2018-04-18T14:46:54.582Z,22.90
2018-04-18T14:49:21.588Z,22.94
2018-04-18T14:51:49.419Z,22.97
2018-04-18T14:54:16.425Z,23.07
2018-04-18T14:56:43.445Z,23.25
2018-04-18T14:59:11.212Z,23.44
2018-04-18T15:01:38.222Z,23.24
2018-04-18T15:04:05.322Z,23.09
2018-04-18T15:06:33.055Z,23.48
2018-04-18T15:09:00.032Z,23.58
2018-04-18T15:11:27.793Z,23.88
2018-04-18T15:13:54.791Z,23.90
2018-04-18T15:16:21.815Z,24.07
2018-04-18T15:18:48.891Z,23.69
2018-04-18T15:21:15.996Z,23.69
2018-04-18T15:23:43.041Z,23.46
2018-04-18T15:26:10.139Z,23.54
2018-04-18T15:28:37.527Z,23.06
2018-04-18T15:31:04.631Z,22.73
2018-04-18T15:33:31.735Z,22.43
2018-04-18T15:35:58.816Z,22.50
2018-04-18T15:38:25.866Z,22.09
2018-04-18T15:40:52.888Z,22.25
2018-04-18T15:43:19.866Z,22.23
2018-04-18T15:45:46.839Z,22.32
2018-04-18T15:48:13.866Z,22.40
2018-04-18T15:50:40.850Z,22.45
2018-04-18T15:53:08.604Z,22.08
2018-04-18T15:55:35.651Z,22.07
2018-04-18T15:58:02.671Z,21.86
2018-04-18T16:00:29.691Z,21.91
2018-04-18T16:02:56.699Z,21.78
2018-04-18T16:05:23.754Z,21.51
2018-04-18T16:07:50.773Z,21.33
2018-04-18T16:10:17.786Z,21.36
2018-04-18T16:12:44.791Z,21.48
2018-04-18T16:15:12.641Z,21.36
2018-04-18T16:17:39.714Z,21.41
2018-04-18T16:20:06.806Z,21.34
2018-04-18T16:22:33.896Z,21.38
2018-04-18T16:25:01.831Z,21.25
2018-04-18T16:27:28.916Z,20.84
2018-04-18T16:29:56.798Z,20.88
2018-04-18T16:32:24.589Z,21.01
2018-04-18T16:34:51.812Z,21.03
2018-04-18T16:37:18.908Z,20.78
2018-04-18T16:39:46.050Z,20.76
2018-04-18T16:42:13.091Z,20.55
2018-04-18T16:44:40.184Z,20.61
2018-04-18T16:47:07.289Z,20.56
2018-04-18T16:49:34.346Z,20.60
2018-04-18T16:52:01.418Z,20.57
2018-04-18T16:54:28.491Z,20.55
2018-04-18T16:56:55.562Z,20.54
2018-04-18T16:59:22.677Z,20.39
2018-04-18T17:01:49.704Z,20.35
2018-04-18T17:04:16.806Z,20.26
2018-04-18T17:06:43.930Z,20.36
2018-04-18T17:09:10.977Z,20.30
2018-04-18T17:11:38.813Z,20.19
2018-04-18T17:14:05.973Z,20.14
2018-04-18T17:16:33.101Z,20.03
2018-04-18T17:19:00.182Z,19.99
2018-04-18T17:21:27.379Z,19.96
2018-04-18T17:23:54.514Z,19.91
2018-04-18T17:26:21.621Z,19.95
2018-04-18T17:28:48.831Z,19.89
2018-04-18T17:31:15.911Z,19.81
2018-04-18T17:33:43.017Z,19.74
2018-04-18T17:36:10.152Z,19.63
2018-04-18T17:38:37.298Z,19.62
2018-04-18T17:41:05.128Z,19.57
2018-04-18T17:43:32.230Z,19.54
2018-04-18T17:45:59.361Z,19.52
2018-04-18T17:48:26.433Z,19.52
2018-04-18T17:50:53.564Z,19.46
2018-04-18T17:53:21.436Z,19.36
2018-04-18T17:55:48.528Z,19.32
2018-04-18T17:58:15.647Z,19.35
2018-04-18T18:00:42.727Z,19.31
2018-04-18T18:03:10.985Z,19.26
2018-04-18T18:05:37.988Z,19.28
2018-04-18T18:08:06.053Z,19.23
2018-04-18T18:10:33.317Z,19.23
2018-04-18T18:13:00.333Z,19.23
2018-04-18T18:15:27.334Z,19.11
2018-04-18T18:17:54.351Z,19.11
2018-04-18T18:20:21.413Z,19.06
2018-04-18T18:22:49.511Z,19.09
2018-04-18T18:25:16.627Z,19.06
2018-04-18T18:27:44.476Z,19.03
2018-04-18T18:30:11.576Z,19.13
2018-04-18T18:32:38.636Z,19.12
2018-04-18T18:35:05.673Z,19.01
2018-04-18T18:37:32.759Z,18.95
2018-04-18T18:39:59.876Z,18.82
2018-04-18T18:42:26.916Z,18.85
2018-04-18T18:44:53.929Z,18.85
2018-04-18T18:47:21.101Z,18.90
2018-04-18T18:49:48.853Z,18.98
2018-04-18T18:52:16.600Z,18.89
2018-04-18T18:54:43.589Z,18.93
2018-04-18T18:57:11.351Z,18.94
2018-04-18T18:59:38.433Z,19.02
2018-04-18T19:02:05.505Z,18.98
2018-04-18T19:04:32.498Z,19.00
2018-04-18T19:07:00.233Z,19.08
2018-04-18T19:09:27.256Z,19.05
2018-04-18T19:11:54.284Z,18.97
2018-04-18T19:14:21.294Z,18.90
2018-04-18T19:16:49.070Z,18.90
2018-04-18T19:19:16.076Z,18.91
2018-04-18T19:21:43.762Z,18.93
2018-04-18T19:24:11.561Z,18.88
2018-04-18T19:26:38.601Z,18.84
2018-04-18T19:29:05.616Z,18.79
2018-04-18T19:31:32.647Z,18.79
2018-04-18T19:33:59.707Z,18.71
2018-04-18T19:36:26.789Z,18.66
2018-04-18T19:38:53.831Z,18.69
2018-04-18T19:41:21.559Z,18.66
2018-04-18T19:43:49.471Z,18.60
2018-04-18T19:46:17.487Z,18.47
2018-04-18T19:48:44.567Z,18.51
2018-04-18T19:51:12.357Z,18.37
2018-04-18T19:53:39.369Z,18.32
2018-04-18T19:56:07.211Z,18.32
2018-04-18T19:58:34.195Z,18.45
2018-04-18T20:01:01.935Z,18.28
2018-04-18T20:03:28.998Z,18.15
2018-04-18T20:05:56.824Z,18.04
2018-04-18T20:08:24.509Z,18.03
2018-04-18T20:10:51.915Z,18.02
2018-04-18T20:13:18.983Z,18.02
2018-04-18T20:15:46.082Z,18.40
2018-04-18T20:18:13.811Z,18.27
2018-04-18T20:20:40.807Z,18.07
2018-04-18T20:23:07.839Z,18.01
2018-04-18T20:25:34.831Z,17.81
2018-04-18T20:28:01.837Z,17.73
2018-04-18T20:30:29.616Z,17.61
2018-04-18T20:32:56.642Z,17.59
2018-04-18T20:35:23.705Z,17.51
2018-04-18T20:37:51.335Z,17.53
2018-04-18T20:40:19.345Z,17.57
2018-04-18T20:42:58.393Z,17.32
2018-04-18T20:45:25.483Z,17.38
2018-04-18T20:47:52.536Z,17.27
2018-04-18T20:50:19.576Z,17.26
2018-04-18T20:52:46.636Z,17.22
2018-04-18T20:55:13.703Z,17.29
2018-04-18T20:57:40.747Z,17.12
2018-04-18T21:00:08.584Z,17.04
2018-04-18T21:02:47.374Z,17.01
2018-04-18T21:07:50.613Z,16.92
2018-04-18T21:10:17.646Z,16.82
2018-04-18T21:12:44.852Z,16.92
2018-04-18T21:15:11.909Z,16.80
2018-04-18T21:17:38.954Z,16.69
2018-04-18T21:20:06.828Z,16.54
2018-04-18T21:22:33.912Z,16.56
2018-04-18T21:25:00.972Z,16.46
2018-04-18T21:27:28.051Z,16.41
2018-04-18T21:29:55.851Z,16.35
2018-04-18T21:32:23.002Z,16.23
2018-04-18T21:34:50.099Z,16.15
2018-04-18T21:37:17.165Z,16.08
2018-04-18T21:39:45.034Z,16.20
2018-04-18T21:42:12.856Z,16.14
2018-04-18T21:44:39.944Z,16.12
2018-04-18T21:47:07.759Z,16.11
2018-04-18T21:49:34.821Z,16.14
2018-04-18T21:52:01.873Z,16.03
2018-04-18T21:54:28.966Z,15.78
2018-04-18T21:56:56.824Z,15.64
2018-04-18T21:59:24.666Z,15.81
2018-04-18T22:01:51.738Z,15.76
2018-04-18T22:04:19.491Z,15.62
2018-04-18T22:06:46.523Z,15.57
2018-04-18T22:09:13.623Z,15.62
2018-04-18T22:11:40.623Z,15.62
2018-04-18T22:14:07.621Z,15.63
2018-04-18T22:16:34.643Z,15.60
2018-04-18T22:19:02.426Z,15.86
2018-04-18T22:21:30.517Z,15.87
2018-04-18T22:23:57.504Z,15.82
2018-04-18T22:26:24.487Z,15.86
2018-04-18T22:31:36.177Z,15.90
2018-04-18T22:34:09.072Z,15.91
2018-04-18T22:36:36.472Z,15.85
2018-04-18T22:39:03.684Z,15.84
2018-04-18T22:41:31.491Z,15.93
2018-04-18T22:43:58.502Z,16.00
2018-04-18T22:46:25.499Z,15.99
2018-04-18T22:48:52.471Z,16.08
2018-04-18T22:51:20.197Z,16.12
2018-04-18T22:53:47.205Z,16.07
2018-04-18T22:56:14.195Z,16.05
2018-04-18T22:58:41.183Z,16.05
2018-04-18T23:01:08.910Z,16.10
2018-04-18T23:03:37.028Z,16.12
2018-04-18T23:06:04.800Z,16.07
2018-04-18T23:08:33.568Z,16.06
2018-04-18T23:11:00.609Z,16.03
2018-04-18T23:13:27.708Z,15.98
2018-04-18T23:15:54.698Z,15.98
2018-04-18T23:18:21.661Z,15.96
2018-04-18T23:20:48.745Z,15.95
2018-04-18T23:23:15.708Z,15.66
2018-04-18T23:25:44.875Z,15.87
2018-04-18T23:28:13.753Z,15.82
2018-04-18T23:30:41.496Z,15.81
2018-04-18T23:33:09.457Z,15.84
2018-04-18T23:35:36.812Z,16.06
2018-04-18T23:38:05.190Z,16.08
2018-04-18T23:40:32.162Z,16.06
2018-04-18T23:42:59.886Z,16.09
2018-04-18T23:45:26.935Z,16.17
2018-04-18T23:47:54.665Z,16.10
2018-04-18T23:50:21.715Z,16.10
2018-04-18T23:52:48.820Z,15.94
2018-04-18T23:55:15.820Z,15.83
2018-04-18T23:57:44.344Z,15.43
